Station: Keith West

  Atmospheric Gas Attenuation - ITU Rec 676-11   --------------- db/100km ---------------
Date Time Temp RH % AH g/m3 Dew Point Wind Direction Speed kph Gust kph Barometer mB Rainfall Since 9am 24GHz 47GHz 76GHz 122GHz 134GHz 241GHz
17 01:40 1.9 99 5.47 1.7 0 0 1013.1 0 13.4 24.1 32.4 84.6 69.1 234.3
17 01:30 2.3 100 5.68 2.3 0 0 1022.9 0 13.8 24.7 33.5 87.5 72.3 245.3
17 01:20 2.3 99 5.62 2.1 0 0 1013.1 0 13.7 24.2 32.9 85.9 70.8 240.3
17 01:10 2.7 99 5.77 2.5 0 0 1013.1 0 14.0 24.4 33.3 87.1 72.5 246.3
17 01:00 2.6 99 5.74 2.5 0 0 1023 0 13.9 24.7 33.7 87.8 72.8 247.3
17 00:50 2.5 99 5.7 2.3 0 0 1013.1 0 13.8 24.3 33.1 86.5 71.8 243.6
17 00:40 2.2 98 5.53 1.9 4 4 1013.1 0 13.5 24.1 32.5 85.0 69.7 236.3
17 00:30 4.6 99 6.56 4.5 6 6 1022.9 0 15.6 25.5 36.2 94.7 82.2 280.4
17 00:20 4.9 100 6.76 4.9 6 6 1013.1 0 16.0 25.4 36.5 95.6 84.0 286.8
17 00:10 3.3 100 6.07 3.3 4 4 1013.1 0 14.6 24.7 34.3 89.8 76.1 258.9
17 00:00 2.1 99 5.54 2 6 9 1023.2 0 13.5 24.5 33.1 86.2 70.6 239.2
16 23:50 2.6 99 5.74 2.4 4 4 1013.1 0 13.9 24.3 33.3 86.9 72.2 245.2
16 23:40 2.6 99 5.74 2.4 4 4 1013.1 0 13.9 24.3 33.3 86.9 72.2 245.2
16 23:30 2.5 99 5.7 2.4 6 7 1023.4 0 13.8 24.7 33.6 87.5 72.4 245.7
16 23:20 2.5 99 5.7 2.3 6 6 1013.1 0 13.8 24.3 33.1 86.5 71.8 243.6
16 23:10 1.8 98 5.38 1.5 6 6 1013.1 0 13.2 24.0 32.1 83.8 68.0 230.3
16 23:00 2.6 98 5.68 2.3 0 0 1023.5 0 13.8 24.6 33.4 87.2 72.1 244.5
16 22:50 2.9 98 5.79 2.6 0 0 1013.1 0 14.0 24.3 33.3 87.1 72.6 246.6
16 22:40 3.3 99 6.01 3.1 0 0 1013.1 0 14.5 24.6 34.1 89.1 75.3 256.0
16 22:30 3.1 98 5.87 2.8 0 0 1023.6 0 14.2 24.8 34.0 88.8 74.2 252.1
16 22:20 3.1 98 5.87 2.8 0 0 1013.1 0 14.2 24.4 33.6 87.8 73.5 249.9
16 22:10 3 98 5.83 2.7 2 2 1013.1 0 14.1 24.4 33.5 87.4 73.1 248.3
16 22:00 2.9 98 5.79 2.6 2 4 1023.7 0 14.0 24.8 33.8 88.1 73.3 248.9
16 21:50 3.6 98 6.07 3.3 2 2 1013.1 0 14.6 24.6 34.2 89.4 75.8 257.9
16 21:40 4 98 6.24 3.7 2 2 1013.1 0 14.9 24.8 34.7 90.9 77.7 264.7
16 21:30 4 98 6.24 3.7 4 4 1023.7 0 14.9 25.2 35.2 91.9 78.5 267.1
16 21:20 3.6 98 6.07 3.3 2 4 1013.1 0 14.6 24.6 34.2 89.4 75.8 257.9
16 21:10 3.5 98 6.03 3.2 4 4 1013.1 0 14.5 24.6 34.1 89.1 75.3 256.3
16 21:00 3.3 96 5.83 2.7 2 2 1023.9 0 14.1 24.7 33.8 88.1 73.5 249.6
16 20:50 4.3 97 6.3 3.8 2 2 1013.1 0 15.1 24.8 34.9 91.2 78.2 266.6
16 20:40 5.1 97 6.64 4.6 4 4 1013.1 0 15.8 25.2 35.9 94.0 82.1 280.2
16 20:30 5.5 97 6.82 5.1 0 0 1023.9 0 16.1 25.8 37.0 96.6 84.9 290.1
16 20:20 5 96 6.53 4.4 0 0 1013.1 0 15.5 25.0 35.5 92.9 80.7 275.3
16 20:10 5.8 95 6.81 5 2 4 1013.1 0 16.1 25.2 36.3 95.1 83.7 285.9
16 20:00 6.7 96 7.3 6.1 6 6 1023.9 0 17.1 26.2 38.4 100.5 90.3 308.9
16 19:50 7.8 98 8 7.5 6 6 1013.1 0 18.6 26.7 40.4 105.9 97.9 335.8
16 19:40 7.1 97 7.57 6.6 7 7 1013.1 0 17.7 26.1 38.9 101.9 92.7 317.7
16 19:30 6.5 94 7.05 5.6 4 4 1023.6 0 16.6 25.9 37.5 97.9 87.0 297.4
16 19:20 7.8 96 7.84 7.2 4 4 1013.1 0 18.2 26.4 39.7 104.1 95.6 328.0
16 19:10 7.5 94 7.53 6.6 4 6 1013.1 0 17.6 26.0 38.5 101.0 91.7 314.1
16 19:00 7.6 94 7.58 6.7 4 7 1023.3 0 17.7 26.4 39.1 102.5 93.1 318.8
16 18:50 6.8 92 7.04 5.6 2 2 1013.1 0 16.6 25.3 36.8 96.4 85.7 293.2
16 18:40 7.6 89 7.17 5.9 0 0 1013.1 0 16.8 25.3 37.0 96.8 86.6 296.4
16 18:30 7.9 87 7.15 5.9 0 0 1023.1 0 16.7 25.6 37.2 97.3 86.8 296.8
16 18:20 8.6 84 7.22 6 0 0 1013.1 0 16.9 25.1 36.7 96.2 86.2 295.0
16 18:10 10.2 87 8.28 8.1 4 4 1013.1 0 19.1 26.4 40.3 105.8 98.7 339.0
16 18:00 10.1 83 7.85 7.3 0 0 1023 0 18.1 26.1 39.0 102.2 93.7 321.5
16 17:50 10.7 83 8.15 7.9 0 0 1013.1 0 18.8 26.1 39.5 103.7 96.3 330.6
16 17:40 10.9 79 7.86 7.4 0 0 1013.1 0 18.1 25.5 38.2 100.2 92.1 316.1
16 17:30 11.1 77 7.76 7.2 0 0 1022.8 0 17.9 25.7 38.2 99.9 91.3 313.1
16 17:20 12 77 8.21 8.1 0 0 1013.1 0 18.8 25.8 39.1 102.6 95.5 328.0
16 17:10 12.6 74 8.19 8.1 0 0 1013.1 0 18.8 25.6 38.7 101.6 94.5 324.5
16 17:00 13.4 72 8.37 8.5 2 4 1022.8 0 19.1 26.0 39.5 103.5 96.6 332.1
16 16:50 13.7 72 8.53 8.7 4 4 1013.1 0 19.4 25.8 39.6 103.8 97.6 335.6
16 16:40 14 72 8.68 9 4 4 1013.1 0 19.8 26.0 40.0 105.0 99.2 341.3
16 16:30 14.4 72 8.9 9.4 4 4 1022.7 0 20.2 26.6 41.1 107.9 102.4 352.4
16 16:20 14.8 71 8.99 9.6 4 4 1013.1 0 20.4 26.2 40.8 107.3 102.2 352.1
16 16:10 15 68 8.72 9.1 4 4 1013.1 0 19.8 25.7 39.7 104.1 98.4 338.8
16 16:00 15.4 68 8.93 9.5 4 4 1022.7 0 20.2 26.3 40.7 106.8 101.5 349.4
16 15:50 15.7 65 8.7 9.3 4 4 1013.1 0 19.7 25.5 39.2 103.0 97.3 334.9
16 15:40 15.8 65 8.75 9.2 2 2 1013.1 0 19.8 25.6 39.4 103.4 97.8 336.7
16 15:30 16.1 63 8.64 9.1 2 4 1022.8 0 19.6 25.7 39.2 102.8 96.8 333.1
16 15:20 15.9 64 8.67 9.1 4 4 1013.1 0 19.6 25.4 39.0 102.4 96.7 332.7
16 15:10 15.9 62 8.4 8.8 2 2 1013.1 0 19.1 25.0 38.0 99.6 93.2 320.6
16 15:00 16.1 64 8.77 9.3 4 7 1022.9 0 19.8 25.9 39.8 104.2 98.5 339.1
16 14:50 16.2 63 8.69 9.1 6 6 1013.1 0 19.7 25.3 39.0 102.2 96.6 332.4
16 14:40 16.1 65 8.91 9.5 2 2 1013.1 0 20.1 25.7 39.9 104.7 99.5 342.7
16 14:30 16.6 64 9.04 9.8 0 0 1023 0 20.4 26.1 40.6 106.4 101.4 349.2
16 14:20 16.7 65 9.24 10.1 0 0 1013.1 0 20.8 26.1 40.9 107.3 103.0 355.0
16 14:10 16.3 63 8.74 9.4 2 2 1013.1 0 19.8 25.4 39.1 102.6 97.1 334.2
16 14:00 16.2 64 8.83 9.4 2 6 1023.1 0 20.0 25.9 39.9 104.7 99.2 341.4
16 13:50 15.9 66 8.94 9.5 4 6 1013.1 0 20.2 25.8 40.1 105.3 100.2 344.9
16 13:40 15.9 69 9.34 10.2 2 2 1013.1 0 21.1 26.5 41.7 109.5 105.4 363.2
16 13:30 15.5 71 9.38 10.3 2 7 1023.2 0 21.2 27.0 42.5 111.6 107.3 369.9
16 13:20 14.9 69 8.79 9.4 2 4 1013.1 0 19.9 25.9 40.0 105.0 99.5 342.4
16 13:10 15.4 70 9.2 9.9 4 6 1013.1 0 20.8 26.4 41.4 108.7 104.2 359.1
16 13:00 15.9 71 9.61 10.7 2 6 1023.3 0 21.6 27.3 43.2 113.5 109.9 378.8
16 12:50 15.4 70 9.2 9.9 6 6 1013.1 0 20.8 26.4 41.4 108.7 104.2 359.1
16 12:40 15.4 70 9.2 10.1 0 0 1013.1 0 20.8 26.4 41.4 108.7 104.2 359.1
16 12:30 15.4 69 9.07 9.7 2 6 1023.7 0 20.5 26.6 41.3 108.4 103.4 356.1
16 12:20 15.3 70 9.14 10 4 4 1013.1 0 20.7 26.3 41.2 108.2 103.6 356.8
16 12:10 14.8 68 8.61 8.9 2 4 1013.1 0 19.6 25.6 39.3 103.2 97.3 334.6
16 12:00 15 69 8.85 9.4 4 6 1024.3 0 20.1 26.4 40.7 106.7 101.1 347.9
16 11:50 14.4 70 8.65 9 2 2 1013.1 0 19.7 25.8 39.7 104.2 98.3 338.2
16 11:40 14.2 69 8.43 8.6 4 4 1013.1 0 19.2 25.5 38.9 102.1 95.7 328.9
16 11:30 13.7 68 8.05 7.9 2 4 1024.7 0 18.4 25.5 38.2 99.9 92.2 316.7
16 11:20 14.1 66 8.01 8 2 2 1013.1 0 18.3 24.9 37.3 97.8 90.3 310.3
16 11:10 13.3 70 8.09 7.9 0 0 1013.1 0 18.5 25.2 38.0 99.6 92.3 317.1
16 11:00 12.5 71 7.81 7.4 2 6 1025 0 18.0 25.4 37.8 98.9 90.5 310.5
16 10:50 11.9 73 7.73 7.2 4 4 1013.1 0 17.8 25.0 37.2 97.6 89.2 306.1
16 10:40 11.8 74 7.79 7.3 4 6 1013.1 0 17.9 25.2 37.5 98.3 90.1 309.3
16 10:30 11.2 76 7.7 7.1 4 7 1025.2 0 17.8 25.6 38.0 99.4 90.6 310.6
16 10:20 11.1 78 7.86 7.4 2 4 1013.1 0 18.1 25.5 38.1 100.0 91.9 315.3
16 10:10 10.9 79 7.86 7.4 6 6 1013.1 0 18.1 25.5 38.2 100.2 92.1 316.1
16 10:00 10.3 82 7.85 7.4 4 6 1025.2 0 18.1 26.1 39.0 102.1 93.7 321.2
16 09:50 9.7 87 8.02 7.6 4 6 1013.1 0 18.5 26.1 39.5 103.6 95.7 328.6
16 09:40 9.6 93 8.52 8.6 2 2 1013.1 0 19.6 27.0 41.6 109.3 102.8 353.3
16 09:30 8.9 96 8.41 8.3 0 0 1025.1 0 19.4 27.5 42.1 110.3 103.2 354.5
16 09:20 8.3 98 8.26 8 0 0 1013.1 0 19.1 27.0 41.2 108.2 100.9 346.4
16 09:10 7.3 99 7.83 7.1 0 0 1013.1 0 18.2 26.5 39.9 104.6 96.1 329.6

Last Refresh: 17-Jul-2020 01:50:26

Most of the information presented on this site is sourced from the Bureau of Meteorology.  Copyright in all material sourced from the Bureau of Meteorology resides with the Commonwealth of Australia.